Latest METARs, TAFs and NOTAMs for MMTO


---------------------------------------------------------------------------
	(OBSERVATIONS)
MMTO 260552Z 00000KT 6SM  SKC 10/07 A3038  RMK SLP098 52010 974
    HZY CI=
MMTO 260448Z 00000KT 6SM  SKC 11/08 A3040 RMK HZY CI=
MMTO 260349Z 00000KT 6SM  SKC 11/08 A3040 RMK HZY AC=
---------------------------------------------------------------------------
	(TERMINAL AREA FORECAST)
MMTO 260507Z 2606/2712 30005KT 5SM HZ SCT015 TX22/2620Z
    TN09/2612Z
    TEMPO 2610/2614 2SM BR BKN015
    FM261600 30010KT P6SM SCT015
    FM262100 23010KT P6SM SCT015CB BKN070
    TEMPO 2622/2702 5SM TSRA BKN015CB=
---------------------------------------------------------------------------
	(NOTAMS)


MMTO A0572/17 CHANGED NAME OF THE FOLLOWING REPORTING POINTS:
    LIMBO TO TAKUG NOGAL TO LENEG PUBLISHED IN CHART AD-MMTO-LL-1,
    AD-MMTO-LL-4, AD-MMTO-LL-7-RNAV/LL-8-RNAV PUBLISHED IN ANEX
    TO SUP 06/12 DATE 21-SEP-2012 MEXICO AIP. 27 JAN 03:46 2017
    UNTIL PERM. CREATED: 27 JAN 04:02 2017

MMTO A1630/18 RWY 15/33 CLSD. 1600/1700 DAYS TUE, 03 APR 16:00
    2018 UNTIL 29 MAY 17:00 2018. CREATED: 28 MAR 02:04 2018

---------------------------------------------------------------------------